createdAt,value
2022-08-27T00:00:41.743Z,93419.69
2022-08-27T00:01:38.412Z,93408.47
2022-08-27T00:02:36.099Z,93414.22
2022-08-27T00:03:32.709Z,93409.59
2022-08-27T00:04:30.121Z,93412.03
2022-08-27T00:05:26.859Z,93411.25
2022-08-27T00:06:25.441Z,93418.63
2022-08-27T00:07:22.223Z,93414.00
2022-08-27T00:08:18.961Z,93418.56
2022-08-27T00:09:15.775Z,93412.06
2022-08-27T00:10:19.373Z,93414.03
2022-08-27T00:11:17.454Z,93412.50
2022-08-27T00:12:14.256Z,93405.97
2022-08-27T00:13:10.920Z,93404.03
2022-08-27T00:14:07.628Z,93419.00
2022-08-27T00:15:06.229Z,93405.91
2022-08-27T00:16:07.003Z,93415.16
2022-08-27T00:17:05.561Z,93393.66
2022-08-27T00:18:02.303Z,93412.47
2022-08-27T00:18:59.106Z,93395.19
2022-08-27T00:19:55.821Z,93410.53
2022-08-27T00:20:53.095Z,93403.66
2022-08-27T00:21:50.196Z,93405.97
2022-08-27T00:22:46.997Z,93395.22
2022-08-27T00:23:43.884Z,93400.97
2022-08-27T00:24:48.861Z,93409.81
2022-08-27T00:25:46.178Z,93409.03
2022-08-27T00:26:43.547Z,93387.13
2022-08-27T00:27:40.674Z,93419.00
2022-08-27T00:28:37.886Z,93410.59
2022-08-27T00:29:34.516Z,93405.94
2022-08-27T00:30:31.175Z,93410.56
2022-08-27T00:31:27.901Z,93406.72
2022-08-27T00:32:25.976Z,93406.75
2022-08-27T00:33:23.461Z,93405.22
2022-08-27T00:34:21.734Z,93409.81
2022-08-27T00:35:18.801Z,93409.06
2022-08-27T00:36:15.563Z,93403.28
2022-08-27T00:37:12.838Z,93402.53
2022-08-27T00:38:09.631Z,93408.28
2022-08-27T00:39:06.459Z,93403.28
2022-08-27T00:40:05.384Z,93402.91
2022-08-27T00:41:03.971Z,93405.59
2022-08-27T00:42:03.815Z,93404.44
2022-08-27T00:43:04.164Z,93402.13
2022-08-27T00:44:02.024Z,93410.59
2022-08-27T00:44:59.773Z,93409.81
2022-08-27T00:46:04.942Z,93404.06
2022-08-27T00:47:07.068Z,93409.06
2022-08-27T00:48:04.886Z,93399.44
2022-08-27T00:49:32.891Z,93411.38
2022-08-27T00:50:44.105Z,93420.56
2022-08-27T00:51:41.159Z,93412.88
2022-08-27T00:52:54.634Z,93410.56
2022-08-27T00:53:53.764Z,93409.81
2022-08-27T00:54:58.509Z,93409.41
2022-08-27T00:56:12.159Z,93411.31
2022-08-27T00:57:08.948Z,93395.59
2022-08-27T00:58:15.129Z,93396.38
2022-08-27T00:59:15.179Z,93415.22
2022-08-27T01:00:16.260Z,93414.81
2022-08-27T01:01:17.228Z,93397.16
2022-08-27T01:02:20.346Z,93406.34
2022-08-27T01:03:17.167Z,93407.50
2022-08-27T01:04:13.833Z,93402.88
2022-08-27T01:05:15.275Z,93409.78
2022-08-27T01:06:16.118Z,93412.88
2022-08-27T01:07:14.539Z,93407.09
2022-08-27T01:08:17.492Z,93407.09
2022-08-27T01:09:17.313Z,93398.50
2022-08-27T01:10:17.927Z,93406.72
2022-08-27T01:11:14.745Z,93408.28
2022-08-27T01:12:11.590Z,93395.56
2022-08-27T01:13:12.590Z,93402.53
2022-08-27T01:14:09.251Z,93389.06
2022-08-27T01:15:12.012Z,93402.53
2022-08-27T01:16:16.099Z,93395.22
2022-08-27T01:17:15.037Z,93392.16
2022-08-27T01:18:13.753Z,93393.69
2022-08-27T01:19:20.252Z,93376.78
2022-08-27T01:20:21.519Z,93396.75
2022-08-27T01:21:31.742Z,93388.31
2022-08-27T01:22:33.968Z,93392.16
2022-08-27T01:23:45.461Z,93389.06
2022-08-27T01:24:52.637Z,93393.69
2022-08-27T01:25:50.264Z,93391.38
2022-08-27T01:26:47.529Z,93394.44
2022-08-27T01:27:45.445Z,93402.88
2022-08-27T01:28:44.147Z,93401.72
2022-08-27T01:29:42.509Z,93383.28
2022-08-27T01:30:40.433Z,93380.97
2022-08-27T01:31:37.463Z,93397.53
2022-08-27T01:32:36.191Z,93396.00
2022-08-27T01:33:33.075Z,93397.53
2022-08-27T01:34:29.813Z,93402.50
2022-08-27T01:35:26.777Z,93399.06
2022-08-27T01:36:23.484Z,93393.31
2022-08-27T01:37:23.910Z,93406.34
2022-08-27T01:38:30.123Z,93401.72
2022-08-27T01:39:27.852Z,93391.72
2022-08-27T01:40:24.796Z,93411.28
2022-08-27T01:41:22.483Z,93402.00
2022-08-27T01:42:24.942Z,93401.28
2022-08-27T01:43:21.676Z,93404.00
2022-08-27T01:44:20.838Z,93406.34
2022-08-27T01:45:26.260Z,93403.69
2022-08-27T01:46:25.384Z,93393.69
2022-08-27T01:47:24.788Z,93406.38
2022-08-27T01:48:27.584Z,93399.81
2022-08-27T01:49:24.213Z,93401.31
2022-08-27T01:50:27.597Z,93400.13
2022-08-27T01:51:24.324Z,93383.59
2022-08-27T01:52:23.347Z,93402.84
2022-08-27T01:53:25.268Z,93390.47
2022-08-27T01:54:22.031Z,93397.47
2022-08-27T01:55:21.692Z,93395.91
2022-08-27T01:56:18.509Z,93396.34
2022-08-27T01:57:15.351Z,93400.53
2022-08-27T01:58:15.038Z,93407.88
2022-08-27T01:59:12.252Z,93398.66
2022-08-27T02:00:16.523Z,93392.91
2022-08-27T02:01:16.888Z,93402.50
2022-08-27T02:02:15.812Z,93405.97
2022-08-27T02:03:13.059Z,93411.31
2022-08-27T02:04:10.518Z,93405.94
2022-08-27T02:05:07.673Z,93414.03
2022-08-27T02:06:07.799Z,93408.63
2022-08-27T02:07:04.976Z,93412.13
2022-08-27T02:08:02.061Z,93414.81
2022-08-27T02:09:00.599Z,93412.13
2022-08-27T02:09:57.223Z,93401.31
2022-08-27T02:10:53.911Z,93410.13
2022-08-27T02:11:50.641Z,93416.69
2022-08-27T02:12:47.464Z,93404.78
2022-08-27T02:13:44.209Z,93410.94
2022-08-27T02:14:40.859Z,93410.16
2022-08-27T02:15:37.552Z,93380.91
2022-08-27T02:16:34.337Z,93409.34
2022-08-27T02:17:38.669Z,93411.25
2022-08-27T02:18:37.423Z,93400.09
2022-08-27T02:19:34.197Z,93405.88
2022-08-27T02:20:31.486Z,93405.09
2022-08-27T02:21:28.226Z,93415.41
2022-08-27T02:22:24.939Z,93409.28
2022-08-27T02:23:21.896Z,93408.16
2022-08-27T02:24:18.614Z,93410.88
2022-08-27T02:25:17.050Z,93410.13
2022-08-27T02:26:14.018Z,93401.25
2022-08-27T02:27:11.544Z,93404.78
2022-08-27T02:28:09.480Z,93406.34
2022-08-27T02:29:06.631Z,93415.19
2022-08-27T02:30:04.577Z,93414.03
2022-08-27T02:31:01.805Z,93406.38
2022-08-27T02:31:58.504Z,93409.03
2022-08-27T02:32:55.125Z,93409.41
2022-08-27T02:33:52.654Z,93413.63
2022-08-27T02:34:49.303Z,93414.75
2022-08-27T02:35:45.987Z,93401.28
2022-08-27T02:36:42.965Z,93403.59
2022-08-27T02:37:39.658Z,93408.22
2022-08-27T02:38:36.417Z,93413.25
2022-08-27T02:39:34.340Z,93409.78
2022-08-27T02:40:34.968Z,93405.50
2022-08-27T02:41:31.869Z,93420.13
2022-08-27T02:42:28.512Z,93407.84
2022-08-27T02:43:25.680Z,93417.41
2022-08-27T02:44:24.831Z,93416.22
2022-08-27T02:45:21.669Z,93410.84
2022-08-27T02:46:18.463Z,93418.13
2022-08-27T02:47:16.774Z,93420.84
2022-08-27T02:48:13.651Z,93411.56
2022-08-27T02:49:10.899Z,93415.34
2022-08-27T02:50:08.940Z,93419.19
2022-08-27T02:51:06.771Z,93415.75
2022-08-27T02:52:03.964Z,93402.31
2022-08-27T02:53:02.567Z,93400.00
2022-08-27T02:54:00.004Z,93418.44
2022-08-27T02:54:57.553Z,93421.13
2022-08-27T02:55:55.298Z,93420.41
2022-08-27T02:56:53.821Z,93413.13
2022-08-27T02:57:50.446Z,93419.63
2022-08-27T02:58:47.136Z,93418.09
2022-08-27T02:59:45.668Z,93420.06
2022-08-27T03:00:43.475Z,93426.72
2022-08-27T03:01:40.183Z,93427.13
2022-08-27T03:02:37.083Z,93429.78
2022-08-27T03:03:33.901Z,93423.66
2022-08-27T03:04:30.563Z,93435.94
2022-08-27T03:05:27.259Z,93415.19
2022-08-27T03:06:23.855Z,93429.72
2022-08-27T03:07:23.543Z,93429.28
2022-08-27T03:08:20.167Z,93430.78
2022-08-27T03:09:16.983Z,93429.94
2022-08-27T03:10:17.270Z,93428.72
2022-08-27T03:11:13.944Z,93427.97
2022-08-27T03:12:10.739Z,93428.00
2022-08-27T03:13:07.340Z,93409.59
2022-08-27T03:14:04.002Z,93420.75
2022-08-27T03:15:00.676Z,93428.03
2022-08-27T03:15:57.361Z,93429.84
2022-08-27T03:16:54.872Z,93431.06
2022-08-27T03:18:10.198Z,93434.53
2022-08-27T03:19:09.079Z,93426.44
2022-08-27T03:20:07.419Z,93433.72
2022-08-27T03:21:04.179Z,93435.34
2022-08-27T03:22:00.793Z,93431.88
2022-08-27T03:22:57.523Z,93429.97
2022-08-27T03:23:54.598Z,93435.38
2022-08-27T03:24:51.272Z,93435.72
2022-08-27T03:25:57.080Z,93438.72
2022-08-27T03:26:54.210Z,93441.06
2022-08-27T03:27:50.934Z,93433.81
2022-08-27T03:28:47.699Z,93441.09
2022-08-27T03:29:44.361Z,93442.53
2022-08-27T03:30:42.510Z,93442.91
2022-08-27T03:31:39.267Z,93422.88
2022-08-27T03:32:36.335Z,93445.19
2022-08-27T03:33:35.897Z,93436.03
2022-08-27T03:34:33.165Z,93434.13
2022-08-27T03:35:30.372Z,93435.31
2022-08-27T03:36:30.321Z,93445.69
2022-08-27T03:37:27.266Z,93447.22
2022-08-27T03:38:24.448Z,93449.16
2022-08-27T03:39:21.054Z,93446.09
2022-08-27T03:40:17.832Z,93457.88
2022-08-27T03:41:16.085Z,93459.75
2022-08-27T03:42:12.818Z,93457.88
2022-08-27T03:43:11.920Z,93452.50
2022-08-27T03:44:08.502Z,93435.63
2022-08-27T03:45:07.302Z,93454.41
2022-08-27T03:46:04.029Z,93451.69
2022-08-27T03:47:00.901Z,93417.41
2022-08-27T03:47:57.708Z,93447.41
2022-08-27T03:48:57.348Z,93453.53
2022-08-27T03:49:55.255Z,93455.88
2022-08-27T03:50:51.919Z,93405.50
2022-08-27T03:51:53.293Z,93452.88
2022-08-27T03:52:50.084Z,93449.06
2022-08-27T03:53:47.204Z,93440.66
2022-08-27T03:54:43.852Z,93437.56
2022-08-27T03:55:42.636Z,93458.69
2022-08-27T03:56:40.683Z,93458.69
2022-08-27T03:57:37.561Z,93448.94
2022-08-27T03:58:36.206Z,93430.53
2022-08-27T03:59:33.536Z,93450.94
2022-08-27T04:00:30.447Z,93453.22
2022-08-27T04:01:27.140Z,93444.28
2022-08-27T04:02:23.949Z,93456.09
2022-08-27T04:03:20.681Z,93439.50
2022-08-27T04:04:17.401Z,93454.16
2022-08-27T04:05:14.593Z,93448.03
2022-08-27T04:06:11.281Z,93452.66
2022-08-27T04:07:10.555Z,93455.75
2022-08-27T04:08:07.271Z,93448.13
2022-08-27T04:09:04.627Z,93455.81
2022-08-27T04:10:01.256Z,93453.88
2022-08-27T04:10:57.937Z,93463.53
2022-08-27T04:11:54.564Z,93465.88
2022-08-27T04:12:51.280Z,93458.56
2022-08-27T04:13:51.120Z,93460.03
2022-08-27T04:14:47.809Z,93452.63
2022-08-27T04:15:46.170Z,93451.00
2022-08-27T04:16:43.634Z,93442.59
2022-08-27T04:17:40.626Z,93451.41
2022-08-27T04:18:37.488Z,93455.66
2022-08-27T04:19:35.177Z,93439.13
2022-08-27T04:20:35.511Z,93456.06
2022-08-27T04:21:33.815Z,93452.63
2022-08-27T04:22:30.450Z,93455.72
2022-08-27T04:23:27.099Z,93454.97
2022-08-27T04:24:23.716Z,93455.41
2022-08-27T04:25:20.716Z,93458.88
2022-08-27T04:26:17.795Z,93458.06
2022-08-27T04:27:16.139Z,93461.13
2022-08-27T04:28:14.872Z,93459.19
2022-08-27T04:29:11.553Z,93461.88
2022-08-27T04:30:10.613Z,93461.47
2022-08-27T04:31:16.317Z,93470.34
2022-08-27T04:32:13.779Z,93465.75
2022-08-27T04:33:11.625Z,93465.78
2022-08-27T04:34:08.329Z,93474.28
2022-08-27T04:35:05.663Z,93462.38
2022-08-27T04:36:07.433Z,93470.06
2022-08-27T04:37:05.488Z,93467.38
2022-08-27T04:38:02.921Z,93471.25
2022-08-27T04:38:59.517Z,93472.38
2022-08-27T04:39:56.172Z,93473.13
2022-08-27T04:41:11.689Z,93473.47
2022-08-27T04:42:08.398Z,93475.41
2022-08-27T04:43:05.064Z,93467.31
2022-08-27T04:44:08.109Z,93477.31
2022-08-27T04:45:05.530Z,93475.41
2022-08-27T04:46:02.311Z,93465.03
2022-08-27T04:47:01.602Z,93473.50
2022-08-27T04:47:58.227Z,93472.38
2022-08-27T04:48:58.141Z,93453.16
2022-08-27T04:49:54.782Z,93483.56
2022-08-27T04:50:52.186Z,93475.88
2022-08-27T04:51:49.086Z,93483.53
2022-08-27T04:52:45.983Z,93485.06
2022-08-27T04:53:44.968Z,93485.06
2022-08-27T04:54:42.361Z,93470.50
2022-08-27T04:55:47.074Z,93478.22
2022-08-27T04:56:43.882Z,93488.19
2022-08-27T04:57:40.478Z,93495.53
2022-08-27T04:58:37.127Z,93488.22
2022-08-27T04:59:34.951Z,93487.47
2022-08-27T05:00:31.691Z,93489.00
2022-08-27T05:01:30.173Z,93504.78
2022-08-27T05:02:26.831Z,93494.38
2022-08-27T05:03:24.304Z,93491.31
2022-08-27T05:04:21.016Z,93494.41
2022-08-27T05:05:17.894Z,93489.78
2022-08-27T05:06:15.368Z,93490.53
2022-08-27T05:07:12.108Z,93494.75
2022-08-27T05:08:10.751Z,93494.78
2022-08-27T05:09:07.572Z,93495.16
2022-08-27T05:10:04.380Z,93490.91
2022-08-27T05:11:01.918Z,93496.66
2022-08-27T05:11:58.731Z,93498.19
2022-08-27T05:12:59.402Z,93495.88
2022-08-27T05:13:56.918Z,93496.63
2022-08-27T05:14:55.027Z,93501.25
2022-08-27T05:15:59.701Z,93505.47
2022-08-27T05:16:58.146Z,93497.75
2022-08-27T05:17:54.795Z,93505.03
2022-08-27T05:18:52.845Z,93498.09
2022-08-27T05:19:49.524Z,93478.88
2022-08-27T05:20:48.684Z,93493.78
2022-08-27T05:21:50.509Z,93499.56
2022-08-27T05:22:47.214Z,93500.28
2022-08-27T05:23:44.297Z,93491.44
2022-08-27T05:24:40.930Z,93495.97
2022-08-27T05:25:42.582Z,93486.72
2022-08-27T05:26:39.272Z,93488.16
2022-08-27T05:27:36.417Z,93490.13
2022-08-27T05:28:33.080Z,93493.88
2022-08-27T05:29:30.301Z,93491.16
2022-08-27T05:30:27.000Z,93490.41
2022-08-27T05:31:23.790Z,93485.78
2022-08-27T05:32:20.454Z,93491.13
2022-08-27T05:33:20.768Z,93491.84
2022-08-27T05:34:21.199Z,93489.44
2022-08-27T05:35:22.136Z,93492.41
2022-08-27T05:36:25.708Z,93482.78
2022-08-27T05:37:22.351Z,93491.34
2022-08-27T05:38:21.051Z,93490.53
2022-08-27T05:39:17.730Z,93483.91
2022-08-27T05:40:14.441Z,93492.03
2022-08-27T05:41:15.352Z,93493.94
2022-08-27T05:42:12.581Z,93493.19
2022-08-27T05:43:10.382Z,93491.28
2022-08-27T05:44:39.594Z,93491.22
2022-08-27T05:45:29.158Z,93487.31
2022-08-27T05:46:27.290Z,93496.09
2022-08-27T05:47:24.681Z,93493.78
2022-08-27T05:48:21.355Z,93498.84
2022-08-27T05:49:18.530Z,93493.44
2022-08-27T05:50:15.386Z,93492.97
2022-08-27T05:51:16.226Z,93494.84
2022-08-27T05:52:22.414Z,93491.31
2022-08-27T05:53:19.085Z,93495.16
2022-08-27T05:54:19.630Z,93495.91
2022-08-27T05:55:16.796Z,93493.50
2022-08-27T05:56:19.348Z,93482.38
2022-08-27T05:57:15.903Z,93494.94
2022-08-27T05:58:33.743Z,93492.56
2022-08-27T05:59:48.858Z,93504.09
2022-08-27T06:01:09.544Z,93498.75
2022-08-27T06:02:07.963Z,93501.63
2022-08-27T06:03:04.692Z,93505.06
2022-08-27T06:04:01.796Z,93510.16
2022-08-27T06:04:58.539Z,93504.28
2022-08-27T06:06:07.940Z,93506.66
2022-08-27T06:07:06.583Z,93493.16
2022-08-27T06:08:03.526Z,93506.75
2022-08-27T06:09:00.191Z,93505.06
2022-08-27T06:09:58.903Z,93502.22
2022-08-27T06:10:57.539Z,93514.84
2022-08-27T06:11:55.583Z,93512.41
2022-08-27T06:12:56.774Z,93513.53
2022-08-27T06:13:53.686Z,93508.19
2022-08-27T06:14:50.320Z,93513.34
2022-08-27T06:15:47.112Z,93510.81
2022-08-27T06:16:44.410Z,93519.41
2022-08-27T06:17:41.063Z,93522.31
2022-08-27T06:18:38.664Z,93495.72
2022-08-27T06:19:36.536Z,93513.94
2022-08-27T06:20:33.250Z,93500.44
2022-08-27T06:21:29.962Z,93516.63
2022-08-27T06:22:26.568Z,93512.34
2022-08-27T06:23:28.181Z,93523.50
2022-08-27T06:24:25.335Z,93515.56
2022-08-27T06:25:21.998Z,93518.53
2022-08-27T06:26:20.561Z,93516.28
2022-08-27T06:27:19.208Z,93524.22
2022-08-27T06:28:15.921Z,93524.38
2022-08-27T06:29:13.812Z,93527.66
2022-08-27T06:30:13.647Z,93518.88
2022-08-27T06:31:16.958Z,93519.00
2022-08-27T06:32:14.966Z,93520.03
2022-08-27T06:33:11.614Z,93525.16
2022-08-27T06:34:09.651Z,93517.16
2022-08-27T06:35:06.515Z,93517.19
2022-08-27T06:36:06.665Z,93518.84
2022-08-27T06:37:03.515Z,93511.91
2022-08-27T06:38:00.376Z,93515.97
2022-08-27T06:38:58.123Z,93500.75
2022-08-27T06:39:54.793Z,93500.91
2022-08-27T06:40:51.512Z,93514.06
2022-08-27T06:41:50.334Z,93517.19
2022-08-27T06:42:47.633Z,93517.19
2022-08-27T06:43:44.323Z,93514.66
2022-08-27T06:44:41.847Z,93513.69
2022-08-27T06:45:39.329Z,93517.44
2022-08-27T06:46:37.167Z,93520.31
2022-08-27T06:47:34.176Z,93512.31
2022-08-27T06:48:34.373Z,93508.41
2022-08-27T06:49:32.084Z,93514.25
2022-08-27T06:50:28.794Z,93510.38
2022-08-27T06:51:28.493Z,93509.28
2022-08-27T06:52:25.165Z,93514.44
2022-08-27T06:53:24.210Z,93517.56
2022-08-27T06:54:21.488Z,93505.84
2022-08-27T06:55:18.153Z,93516.69
2022-08-27T06:56:17.005Z,93513.41
2022-08-27T06:57:13.663Z,93514.75
2022-08-27T06:58:10.857Z,93518.38
2022-08-27T06:59:12.080Z,93505.69
2022-08-27T07:00:10.088Z,93512.09
2022-08-27T07:01:19.145Z,93515.56
2022-08-27T07:02:15.913Z,93519.19
2022-08-27T07:03:12.560Z,93495.81
2022-08-27T07:04:12.395Z,93510.56
2022-08-27T07:05:09.522Z,93516.63
2022-08-27T07:06:07.697Z,93501.75
2022-08-27T07:07:04.686Z,93512.75
2022-08-27T07:08:02.057Z,93523.69
2022-08-27T07:08:59.831Z,93515.03
2022-08-27T07:09:56.980Z,93520.72
2022-08-27T07:10:57.588Z,93517.00
2022-08-27T07:11:54.821Z,93515.06
2022-08-27T07:12:51.566Z,93509.38
2022-08-27T07:13:49.102Z,93515.72
2022-08-27T07:14:46.126Z,93501.69
2022-08-27T07:15:43.167Z,93513.91
2022-08-27T07:16:40.921Z,93510.97
2022-08-27T07:17:37.853Z,93499.69
2022-08-27T07:18:34.941Z,93513.22
2022-08-27T07:19:32.314Z,93510.97
2022-08-27T07:20:29.104Z,93506.25
2022-08-27T07:21:26.782Z,93513.50
2022-08-27T07:22:23.386Z,93494.31
2022-08-27T07:23:20.420Z,93501.78
2022-08-27T07:24:17.794Z,93482.44
2022-08-27T07:25:21.327Z,93507.31
2022-08-27T07:26:19.496Z,93515.16
2022-08-27T07:27:16.170Z,93512.00
2022-08-27T07:28:12.929Z,93517.94
2022-08-27T07:29:12.920Z,93520.81
2022-08-27T07:30:13.096Z,93520.16
2022-08-27T07:31:12.931Z,93520.38
2022-08-27T07:32:10.022Z,93509.56
2022-08-27T07:33:06.704Z,93523.81
2022-08-27T07:34:05.195Z,93517.94
2022-08-27T07:35:01.855Z,93499.97
2022-08-27T07:35:59.539Z,93526.66
2022-08-27T07:36:56.244Z,93520.81
2022-08-27T07:37:52.855Z,93518.13
2022-08-27T07:39:00.681Z,93517.13
2022-08-27T07:39:58.516Z,93529.88
2022-08-27T07:40:55.485Z,93506.94
2022-08-27T07:42:10.609Z,93524.44
2022-08-27T07:43:27.683Z,93523.06
2022-08-27T07:44:26.025Z,93524.94
2022-08-27T07:45:23.005Z,93529.16
2022-08-27T07:46:21.889Z,93528.56
2022-08-27T07:47:18.633Z,93529.50
2022-08-27T07:48:16.462Z,93531.72
2022-08-27T07:49:13.988Z,93529.81
2022-08-27T07:50:10.747Z,93536.16
2022-08-27T07:51:17.672Z,93527.72
2022-08-27T07:52:16.146Z,93527.94
2022-08-27T07:53:12.742Z,93532.03
2022-08-27T07:54:09.359Z,93535.03
2022-08-27T07:55:06.568Z,93527.34
2022-08-27T07:56:08.197Z,93533.34
2022-08-27T07:57:04.969Z,93531.47
2022-08-27T07:58:01.671Z,93532.31
2022-08-27T07:58:59.234Z,93532.44
2022-08-27T07:59:55.902Z,93531.94
2022-08-27T08:00:55.512Z,93530.63
2022-08-27T08:01:52.426Z,93513.84
2022-08-27T08:02:49.678Z,93524.44
2022-08-27T08:03:47.265Z,93524.88
2022-08-27T08:04:43.966Z,93524.94
2022-08-27T08:05:43.950Z,93535.00
2022-08-27T08:06:40.858Z,93525.94
2022-08-27T08:07:38.573Z,93526.78
2022-08-27T08:08:36.585Z,93524.97
2022-08-27T08:09:36.042Z,93522.78
2022-08-27T08:10:35.633Z,93524.50
2022-08-27T08:11:33.941Z,93525.53
2022-08-27T08:12:31.709Z,93525.72
2022-08-27T08:13:28.518Z,93537.06
2022-08-27T08:14:25.221Z,93530.84
2022-08-27T08:15:22.115Z,93527.13
2022-08-27T08:16:18.762Z,93523.53
2022-08-27T08:17:15.463Z,93526.47
2022-08-27T08:18:12.953Z,93524.19
2022-08-27T08:19:09.685Z,93525.06
2022-08-27T08:20:21.832Z,93525.31
2022-08-27T08:21:25.319Z,93522.25
2022-08-27T08:22:21.954Z,93533.81
2022-08-27T08:23:20.068Z,93524.31
2022-08-27T08:24:18.346Z,93519.06
2022-08-27T08:25:16.302Z,93510.19
2022-08-27T08:26:13.312Z,93524.16
2022-08-27T08:27:11.292Z,93518.75
2022-08-27T08:28:08.736Z,93508.97
2022-08-27T08:29:05.465Z,93519.63
2022-08-27T08:30:02.696Z,93520.03
2022-08-27T08:30:59.825Z,93523.16
2022-08-27T08:31:56.589Z,93489.88
2022-08-27T08:32:53.845Z,93518.97
2022-08-27T08:33:50.655Z,93512.31
2022-08-27T08:34:47.596Z,93517.84
2022-08-27T08:35:44.242Z,93520.44
2022-08-27T08:36:40.860Z,93518.94
2022-08-27T08:37:37.993Z,93517.75
2022-08-27T08:38:34.756Z,93523.03
2022-08-27T08:39:31.449Z,93524.97
2022-08-27T08:40:36.639Z,93527.66
2022-08-27T08:41:43.471Z,93523.44
2022-08-27T08:42:45.037Z,93521.50
2022-08-27T08:43:51.627Z,93523.81
2022-08-27T08:44:52.898Z,93516.47
2022-08-27T08:45:51.403Z,93505.94
2022-08-27T08:46:59.848Z,93525.69
2022-08-27T08:48:04.946Z,93524.97
2022-08-27T08:49:14.467Z,93526.47
2022-08-27T08:50:19.975Z,93528.31
2022-08-27T08:51:25.536Z,93516.28
2022-08-27T08:52:31.276Z,93522.28
2022-08-27T08:53:51.368Z,93519.38
2022-08-27T08:54:49.940Z,93523.81
2022-08-27T08:56:01.514Z,93512.88
2022-08-27T08:57:13.007Z,93515.63
2022-08-27T08:58:35.464Z,93505.88
2022-08-27T08:59:38.704Z,93491.09
2022-08-27T09:00:37.446Z,93521.50
2022-08-27T09:01:35.304Z,93519.34
2022-08-27T09:02:32.615Z,93520.63
2022-08-27T09:03:33.399Z,93517.66
2022-08-27T09:04:30.651Z,93512.25
2022-08-27T09:05:27.950Z,93515.47
2022-08-27T09:06:36.654Z,93508.06
2022-08-27T09:07:51.638Z,93507.63
2022-08-27T09:08:49.241Z,93509.84
2022-08-27T09:10:01.212Z,93511.06
2022-08-27T09:11:05.393Z,93510.84
2022-08-27T09:12:15.000Z,93507.78
2022-08-27T09:13:22.879Z,93512.94
2022-08-27T09:14:40.827Z,93518.38
2022-08-27T09:15:42.059Z,93510.75
2022-08-27T09:16:38.942Z,93510.31
2022-08-27T09:17:36.564Z,93519.00
2022-08-27T09:18:39.047Z,93516.03
2022-08-27T09:19:37.990Z,93513.94
2022-08-27T09:20:35.598Z,93517.84
2022-08-27T09:21:45.144Z,93515.78
2022-08-27T09:23:06.670Z,93505.00
2022-08-27T09:24:39.023Z,93504.97
2022-08-27T09:25:38.473Z,93509.25
2022-08-27T09:26:39.195Z,93508.81
2022-08-27T09:27:38.474Z,93511.81
2022-08-27T09:28:59.899Z,93510.00
2022-08-27T09:29:57.320Z,93516.22
2022-08-27T09:30:55.876Z,93514.28
2022-08-27T09:32:00.170Z,93502.38
2022-08-27T09:33:00.453Z,93509.53
2022-08-27T09:33:57.305Z,93503.47
2022-08-27T09:34:58.559Z,93502.84
2022-08-27T09:35:55.239Z,93508.63
2022-08-27T09:37:00.517Z,93510.34
2022-08-27T09:37:57.927Z,93504.09
2022-08-27T09:38:59.291Z,93485.66
2022-08-27T09:40:01.938Z,93501.78
2022-08-27T09:41:03.474Z,93499.06
2022-08-27T09:42:04.055Z,93501.81
2022-08-27T09:43:15.841Z,93496.69
2022-08-27T09:44:16.551Z,93501.09
2022-08-27T09:45:20.043Z,93489.22
2022-08-27T09:46:22.442Z,93495.84
2022-08-27T09:47:21.155Z,93500.63
2022-08-27T09:48:26.736Z,93500.44
2022-08-27T09:49:24.714Z,93497.91
2022-08-27T09:50:24.595Z,93493.63
2022-08-27T09:51:25.747Z,93503.59
2022-08-27T09:52:37.856Z,93499.88
2022-08-27T09:53:47.469Z,93494.06
2022-08-27T09:54:47.922Z,93499.56
2022-08-27T09:55:49.515Z,93501.09
2022-08-27T09:56:50.304Z,93495.44
2022-08-27T09:57:47.036Z,93495.97
2022-08-27T09:58:43.642Z,93493.38
2022-08-27T09:59:51.419Z,93491.44
2022-08-27T10:00:58.475Z,93485.22
2022-08-27T10:02:09.148Z,93494.13
2022-08-27T10:03:11.032Z,93494.00
2022-08-27T10:04:11.779Z,93483.63
2022-08-27T10:05:18.749Z,93486.22
2022-08-27T10:06:27.551Z,93490.41
2022-08-27T10:07:42.049Z,93491.91
2022-08-27T10:08:48.829Z,93491.63
2022-08-27T10:09:55.970Z,93491.06
2022-08-27T10:11:03.480Z,93492.91
2022-08-27T10:12:09.355Z,93486.56
2022-08-27T10:13:56.566Z,93483.97
2022-08-27T10:14:57.916Z,93491.19
2022-08-27T10:16:28.263Z,93488.56
2022-08-27T10:17:33.820Z,93484.78
2022-08-27T10:18:41.328Z,93489.84
2022-08-27T10:20:02.141Z,93485.75
2022-08-27T10:21:25.546Z,93482.28
2022-08-27T10:22:44.688Z,93484.34
2022-08-27T10:24:07.167Z,93487.22
2022-08-27T10:25:15.827Z,93481.75
2022-08-27T10:26:25.143Z,93482.53
2022-08-27T10:27:56.677Z,93484.66
2022-08-27T10:29:08.484Z,93486.31
2022-08-27T10:30:05.487Z,93482.94
2022-08-27T10:31:32.793Z,93481.31
2022-08-27T10:32:29.656Z,93488.63
2022-08-27T10:33:51.101Z,93483.53
2022-08-27T10:35:09.037Z,93485.91
2022-08-27T10:36:26.295Z,93479.75
2022-08-27T10:38:01.922Z,93482.78
2022-08-27T10:39:11.716Z,93477.38
2022-08-27T10:40:09.364Z,93478.31
2022-08-27T10:41:25.296Z,93477.75
2022-08-27T10:42:29.525Z,93476.13
2022-08-27T10:43:56.287Z,93480.31
2022-08-27T10:45:08.926Z,93481.88
2022-08-27T10:46:49.857Z,93482.50
2022-08-27T10:48:03.226Z,93482.75
2022-08-27T10:49:24.094Z,93484.19
2022-08-27T10:50:49.004Z,93486.41
2022-08-27T10:51:45.670Z,93483.50
2022-08-27T10:52:51.616Z,93486.94
2022-08-27T10:54:10.082Z,93483.09
2022-08-27T10:55:24.314Z,93481.41
2022-08-27T10:57:14.440Z,93485.97
2022-08-27T10:58:17.680Z,93482.34
2022-08-27T10:59:24.695Z,93484.63
2022-08-27T11:00:23.635Z,93478.13
2022-08-27T11:01:33.095Z,93476.09
2022-08-27T11:02:41.462Z,93478.41
2022-08-27T11:03:46.908Z,93482.53
2022-08-27T11:04:51.428Z,93480.56
2022-08-27T11:05:50.558Z,93475.31
2022-08-27T11:06:57.903Z,93482.66
2022-08-27T11:08:03.847Z,93475.94
2022-08-27T11:09:23.516Z,93473.72
2022-08-27T11:10:28.477Z,93482.66
2022-08-27T11:12:13.456Z,93474.34
2022-08-27T11:13:10.830Z,93472.50
2022-08-27T11:14:15.075Z,93471.16
2022-08-27T11:15:20.959Z,93474.56
2022-08-27T11:16:23.237Z,93482.38
2022-08-27T11:17:41.321Z,93473.38
2022-08-27T11:18:55.020Z,93475.84
2022-08-27T11:19:57.312Z,93480.09
2022-08-27T11:21:05.460Z,93472.56
2022-08-27T11:22:26.467Z,93470.91
2022-08-27T11:23:37.404Z,93470.50
2022-08-27T11:24:47.898Z,93473.97
2022-08-27T11:25:59.104Z,93466.88
2022-08-27T11:27:05.576Z,93472.66
2022-08-27T11:28:04.688Z,93466.56
2022-08-27T11:29:10.548Z,93467.47
2022-08-27T11:30:32.381Z,93459.31
2022-08-27T11:31:38.369Z,93455.78
2022-08-27T11:33:11.054Z,93445.88
2022-08-27T11:34:18.967Z,93460.53
2022-08-27T11:35:35.823Z,93453.75
2022-08-27T11:36:35.383Z,93456.03
2022-08-27T11:37:41.147Z,93454.50
2022-08-27T11:38:47.815Z,93457.47
2022-08-27T11:40:06.599Z,93452.69
2022-08-27T11:41:22.083Z,93448.00
2022-08-27T11:42:42.107Z,93445.59
2022-08-27T11:43:39.193Z,93446.78
2022-08-27T11:44:43.125Z,93450.03
2022-08-27T11:45:54.072Z,93439.88
2022-08-27T11:46:58.153Z,93451.81
2022-08-27T11:47:58.456Z,93443.72
2022-08-27T11:49:01.825Z,93439.88
2022-08-27T11:50:01.610Z,93450.00
2022-08-27T11:51:01.798Z,93443.03
2022-08-27T11:52:03.084Z,93440.59
2022-08-27T11:53:02.604Z,93433.31
2022-08-27T11:54:03.096Z,93440.88
2022-08-27T11:55:15.346Z,93438.22
2022-08-27T11:56:15.779Z,93437.97